Time;durP1;ratioP1;P1;durP2;ratioP2;P2;SDS_P1;SDS_P2;PMS_P1;PMS_P2;Temp;Humidity;BMP_temperature;BMP_pressure;BME280_temperature;BME280_humidity;BME280_pressure;Samples;Min_cycle;Max_cycle;Signal;HPM_P1;HPM_P2
2023/08/08 00:02:10;;;;;;;13.80;8.18;;;;;;;19.98;52.90;93515.06;5076759;27;20412;-89
2023/08/08 00:04:35;;;;;;;14.13;8.13;;;;;;;19.95;53.23;93505.88;5084407;28;20729;-88
2023/08/08 00:07:00;;;;;;;12.95;8.73;;;;;;;19.97;53.07;93508.84;5066992;27;20199;-88
2023/08/08 00:09:26;;;;;;;13.15;7.97;;;;;;;19.93;53.04;93505.66;5071501;27;20104;-88
2023/08/08 00:11:51;;;;;;;14.52;8.98;;;;;;;19.94;52.93;93501.66;5075226;28;20470;-89
2023/08/08 00:14:17;;;;;;;14.18;8.90;;;;;;;19.96;52.99;93504.63;5057421;28;20096;-89
2023/08/08 00:16:42;;;;;;;13.75;8.68;;;;;;;19.96;53.02;93501.88;5053955;28;20539;-90
2023/08/08 00:19:08;;;;;;;12.05;8.07;;;;;;;19.97;53.10;93500.63;5056602;28;20569;-89
2023/08/08 00:21:33;;;;;;;15.00;8.30;;;;;;;19.96;53.05;93501.88;5070508;28;20043;-89
2023/08/08 00:23:58;;;;;;;13.23;8.05;;;;;;;19.97;53.25;93488.91;5090988;27;20089;-89
2023/08/08 00:26:24;;;;;;;12.55;8.38;;;;;;;19.96;52.99;93495.66;5073608;28;20043;-89
2023/08/08 00:28:49;;;;;;;16.02;7.85;;;;;;;19.97;52.88;93488.91;5074562;28;20036;-89
2023/08/08 00:31:17;;;;;;;15.27;8.43;;;;;;;19.95;53.38;93494.91;5053951;28;20044;-89
2023/08/08 00:33:45;;;;;;;13.50;7.90;;;;;;;19.95;53.06;93494.91;5074727;28;20036;-89
2023/08/08 00:36:11;;;;;;;13.73;8.00;;;;;;;19.94;53.06;93493.41;5093884;27;20091;-89
2023/08/08 00:38:36;;;;;;;13.65;8.20;;;;;;;19.93;53.17;93494.69;5078070;27;20043;-88
2023/08/08 00:41:02;;;;;;;13.02;7.93;;;;;;;19.96;53.20;93488.16;5076107;27;20043;-90
2023/08/08 00:43:27;;;;;;;14.52;7.90;;;;;;;19.94;53.31;93481.69;5078642;28;20341;-90
2023/08/08 00:45:53;;;;;;;13.52;7.93;;;;;;;19.92;53.25;93487.00;5083729;28;20039;-88
2023/08/08 00:48:19;;;;;;;12.38;8.60;;;;;;;19.93;53.08;93486.44;5090576;27;20043;-90
2023/08/08 00:50:44;;;;;;;15.27;8.90;;;;;;;19.93;53.24;93488.44;5092672;27;20043;-89
2023/08/08 00:53:10;;;;;;;15.63;8.52;;;;;;;19.93;53.05;93485.69;5075901;27;20047;-89
2023/08/08 00:55:35;;;;;;;12.52;7.95;;;;;;;19.92;53.12;93492.47;5076908;27;20047;-89
2023/08/08 00:58:01;;;;;;;12.25;7.97;;;;;;;19.92;52.97;93484.97;5084907;28;20042;-90
2023/08/08 01:00:26;;;;;;;13.73;7.85;;;;;;;19.91;53.19;93489.00;5056673;28;20118;-89
2023/08/08 01:02:52;;;;;;;13.52;7.72;;;;;;;19.92;53.12;93492.47;5086161;27;20054;-89
2023/08/08 01:05:17;;;;;;;12.18;7.80;;;;;;;19.93;53.05;93494.69;5060163;28;20036;-89
2023/08/08 01:07:45;;;;;;;13.57;7.28;;;;;;;19.91;53.30;93491.72;5065356;28;20503;-89
2023/08/08 01:10:20;;;;;;;10.80;7.40;;;;;;;19.93;52.97;93493.94;5106613;28;20055;-88
2023/08/08 01:12:48;;;;;;;16.50;8.27;;;;;;;19.91;53.25;93480.75;5054606;28;20051;-89
2023/08/08 01:15:13;;;;;;;13.65;7.32;;;;;;;19.91;53.21;93483.50;5055731;28;20049;-90
2023/08/08 01:17:39;;;;;;;13.90;7.72;;;;;;;19.91;53.37;93488.25;5069450;28;20109;-90
2023/08/08 01:20:06;;;;;;;12.38;8.05;;;;;;;19.90;53.24;93497.72;5070942;28;20042;-89
2023/08/08 01:22:39;;;;;;;10.80;7.32;;;;;;;19.91;52.96;93493.72;5053094;28;20569;-89
2023/08/08 01:25:04;;;;;;;12.77;8.05;;;;;;;19.91;52.92;93499.97;5055668;28;20051;-89
2023/08/08 01:27:30;;;;;;;16.83;7.53;;;;;;;19.91;53.18;93501.97;5081966;27;20042;-89
2023/08/08 01:29:55;;;;;;;14.52;7.57;;;;;;;19.92;53.25;93493.19;5056548;28;20074;-89
2023/08/08 01:32:21;;;;;;;11.00;7.43;;;;;;;19.89;53.08;93491.50;5084957;28;20032;-90
2023/08/08 01:34:46;;;;;;;12.55;6.90;;;;;;;19.90;53.00;93490.25;5095314;27;20039;-91
2023/08/08 01:37:18;;;;;;;12.85;7.40;;;;;;;19.90;53.25;93484.03;5087854;28;20035;-89
2023/08/08 01:39:46;;;;;;;11.20;7.30;;;;;;;19.92;52.87;93493.19;5069371;28;20035;-89
2023/08/08 01:42:12;;;;;;;13.23;7.85;;;;;;;19.91;53.12;93485.50;5057163;28;20044;-89
2023/08/08 01:44:39;;;;;;;13.30;7.57;;;;;;;19.90;53.34;93497.72;5052628;28;20053;-90
2023/08/08 01:47:05;;;;;;;11.05;7.80;;;;;;;19.89;53.27;93493.50;5057768;28;20497;-89
2023/08/08 01:49:30;;;;;;;13.13;7.68;;;;;;;19.92;53.29;93492.47;5072256;28;20093;-90
2023/08/08 01:51:56;;;;;;;11.68;6.85;;;;;;;19.91;52.93;93483.50;5073901;27;20474;-89
2023/08/08 01:54:21;;;;;;;12.45;6.95;;;;;;;19.89;53.33;93499.75;5074283;27;20051;-89
2023/08/08 01:56:46;;;;;;;9.57;7.00;;;;;;;19.90;53.21;93498.47;5072770;28;20133;-89
2023/08/08 01:59:12;;;;;;;13.27;7.50;;;;;;;19.90;52.99;93490.25;5051224;28;20089;-89
2023/08/08 02:01:37;;;;;;;11.95;7.45;;;;;;;19.91;53.18;93493.72;5074905;28;20043;-89
2023/08/08 02:04:03;;;;;;;8.50;6.40;;;;;;;19.89;53.34;93491.50;5072841;27;20046;-88
2023/08/08 02:06:29;;;;;;;12.93;7.05;;;;;;;19.90;52.94;93481.28;5055764;28;20063;-89
2023/08/08 02:08:54;;;;;;;10.70;6.88;;;;;;;19.90;52.89;93495.00;5073238;28;20096;-89
2023/08/08 02:11:21;;;;;;;11.60;7.65;;;;;;;19.92;52.92;93495.22;5059785;28;20543;-89
2023/08/08 02:13:47;;;;;;;9.90;6.30;;;;;;;19.91;53.11;93485.50;5045741;28;20482;-89
2023/08/08 02:16:13;;;;;;;12.40;7.68;;;;;;;19.88;53.71;93489.28;5067488;28;20133;-89
2023/08/08 02:18:40;;;;;;;10.68;6.93;;;;;;;19.89;53.17;93485.28;5056168;28;20532;-89
2023/08/08 02:21:08;;;;;;;11.07;6.93;;;;;;;19.88;53.09;93487.28;5072461;28;20131;-89
2023/08/08 02:23:34;;;;;;;11.13;6.85;;;;;;;19.85;53.05;93483.56;5081584;28;20039;-88
2023/08/08 02:25:59;;;;;;;9.95;6.63;;;;;;;19.87;53.10;93485.78;5092781;28;20506;-89
2023/08/08 02:28:24;;;;;;;14.43;6.90;;;;;;;19.88;52.84;93490.03;5095995;27;20043;-90
2023/08/08 02:30:50;;;;;;;8.85;5.97;;;;;;;19.85;52.99;93480.81;5079016;28;20048;-90
2023/08/08 02:33:15;;;;;;;10.18;6.60;;;;;;;19.87;52.96;93479.56;5071177;27;20039;-90
2023/08/08 02:35:41;;;;;;;10.73;6.85;;;;;;;19.87;53.18;93483.06;5089300;27;20111;-89
2023/08/08 02:38:06;;;;;;;10.50;7.18;;;;;;;19.87;53.00;93491.28;5096276;27;20144;-89
2023/08/08 02:40:33;;;;;;;9.23;6.95;;;;;;;19.84;53.35;93484.81;5079730;27;20031;-89
2023/08/08 02:42:58;;;;;;;12.20;6.78;;;;;;;19.86;53.09;93487.06;5076396;27;20062;-89
2023/08/08 02:45:24;;;;;;;9.18;6.32;;;;;;;19.85;53.05;93474.59;5067949;28;20483;-89
2023/08/08 02:47:49;;;;;;;13.40;7.07;;;;;;;19.88;53.02;93483.78;5061649;28;20044;-89
2023/08/08 02:50:15;;;;;;;10.85;6.63;;;;;;;19.85;53.10;93486.31;5079957;27;20039;-89
2023/08/08 02:52:40;;;;;;;10.43;6.63;;;;;;;19.85;53.04;93489.06;5060318;28;20044;-89
2023/08/08 02:55:06;;;;;;;12.57;6.13;;;;;;;19.86;52.86;93487.06;5071626;28;20044;-90
2023/08/08 02:57:32;;;;;;;8.57;6.22;;;;;;;19.87;52.92;93485.06;5076597;28;20089;-90
2023/08/08 02:59:57;;;;;;;11.05;6.72;;;;;;;19.87;52.95;93482.31;5074766;28;20039;-89
2023/08/08 03:02:23;;;;;;;9.70;6.18;;;;;;;19.88;52.94;93484.53;5075971;28;20512;-89
2023/08/08 03:04:48;;;;;;;12.13;6.97;;;;;;;19.86;53.16;93484.31;5076356;27;20554;-90
2023/08/08 03:07:13;;;;;;;9.43;6.30;;;;;;;19.84;52.74;93489.56;5076282;27;20020;-89
2023/08/08 03:09:40;;;;;;;10.88;6.28;;;;;;;19.85;53.18;93491.78;5075988;28;20028;-89
2023/08/08 03:12:06;;;;;;;11.82;6.25;;;;;;;19.85;53.02;93493.78;5071193;28;20039;-89
2023/08/08 03:14:31;;;;;;;9.63;6.05;;;;;;;19.85;52.97;93488.31;5083832;27;20064;-90
2023/08/08 03:16:56;;;;;;;10.55;6.60;;;;;;;19.83;53.20;93477.84;5061264;28;20096;-90
2023/08/08 03:19:22;;;;;;;9.57;6.35;;;;;;;19.85;53.18;93478.09;5058979;28;20048;-88
2023/08/08 03:21:47;;;;;;;9.88;6.55;;;;;;;19.85;53.15;93485.56;5092462;28;20105;-88
2023/08/08 03:24:13;;;;;;;9.27;6.22;;;;;;;19.86;53.14;93489.78;5060792;27;20039;-89
2023/08/08 03:26:38;;;;;;;11.07;7.00;;;;;;;19.83;53.30;93483.34;5071351;28;20105;-88
2023/08/08 03:29:04;;;;;;;10.93;6.32;;;;;;;19.90;53.32;93481.28;5100945;27;20035;-89
2023/08/08 03:31:29;;;;;;;8.52;5.75;;;;;;;19.87;52.81;93482.31;5084690;28;20039;-89
2023/08/08 03:33:54;;;;;;;11.40;6.03;;;;;;;19.92;52.71;93478.75;5085423;27;20042;-89
2023/08/08 03:36:20;;;;;;;7.40;4.95;;;;;;;19.98;52.94;93476.66;5092129;28;20051;-89
2023/08/08 03:38:45;;;;;;;8.38;5.35;;;;;;;20.00;52.77;93476.88;5070818;28;20047;-89
2023/08/08 03:41:11;;;;;;;9.48;5.97;;;;;;;19.96;53.03;93479.19;5088438;28;20048;-89
2023/08/08 03:43:38;;;;;;;8.93;5.88;;;;;;;19.95;52.67;93467.47;5075563;28;20323;-90
2023/08/08 03:46:03;;;;;;;11.10;8.20;;;;;;;20.04;52.71;93469.09;5088836;27;20120;-88
2023/08/08 03:48:29;;;;;;;17.05;8.93;;;;;;;20.05;52.75;93473.34;5092175;28;20043;-89
2023/08/08 03:50:54;;;;;;;15.38;9.02;;;;;;;20.06;52.73;93474.81;5101579;28;20050;-88
2023/08/08 03:53:20;;;;;;;16.15;7.38;;;;;;;19.97;52.66;93473.16;5067453;28;20479;-88
2023/08/08 03:55:45;;;;;;;13.90;8.43;;;;;;;19.97;52.43;93473.16;5064576;28;20044;-90
2023/08/08 03:58:11;;;;;;;23.50;9.88;;;;;;;19.93;52.98;93477.47;5049279;28;20129;-88
2023/08/08 04:00:39;;;;;;;22.52;11.15;;;;;;;19.94;52.63;93471.47;5040395;28;20036;-91
2023/08/08 04:03:04;;;;;;;22.58;11.25;;;;;;;19.92;52.78;93481.50;5043466;28;20036;-90
2023/08/08 04:05:30;;;;;;;19.95;10.50;;;;;;;19.96;52.42;93474.44;5048281;28;20036;-88
2023/08/08 04:07:58;;;;;;;39.22;12.85;;;;;;;19.91;52.75;93471.78;5035590;28;20040;-90
2023/08/08 04:10:23;;;;;;;31.83;12.55;;;;;;;20.00;52.88;93479.63;5037159;28;20564;-91
2023/08/08 04:12:49;;;;;;;29.00;12.15;;;;;;;19.93;52.69;93475.47;5035880;28;20033;-90
2023/08/08 04:15:14;;;;;;;31.92;13.00;;;;;;;19.93;52.78;93472.72;5033413;28;20245;-91
2023/08/08 04:17:39;;;;;;;33.88;13.18;;;;;;;19.92;52.87;93476.72;5022099;28;20507;-89
2023/08/08 04:20:06;;;;;;;39.70;13.88;;;;;;;19.94;52.87;93482.44;5033022;28;20043;-90
2023/08/08 04:22:31;;;;;;;36.47;15.75;;;;;;;19.94;53.12;93484.44;5016700;28;20105;-91
2023/08/08 04:24:57;;;;;;;39.42;15.02;;;;;;;19.93;52.55;93483.69;5019808;28;20145;-91
2023/08/08 04:27:22;;;;;;;36.63;15.75;;;;;;;19.92;52.77;93473.97;4978300;28;20054;-89
2023/08/08 04:29:48;;;;;;;30.38;14.30;;;;;;;19.96;52.72;93476.44;5010569;28;20053;-88
2023/08/08 04:32:13;;;;;;;46.80;14.95;;;;;;;19.92;53.04;93471.25;4993919;28;20057;-88
2023/08/08 04:34:39;;;;;;;42.63;15.43;;;;;;;19.89;53.01;93457.84;4994449;28;20053;-89
2023/08/08 04:37:05;;;;;;;45.88;15.50;;;;;;;19.93;52.94;93466.50;5010998;28;20053;-88
2023/08/08 04:39:31;;;;;;;40.78;11.07;;;;;;;19.85;50.59;93486.31;5013325;28;20049;-88
2023/08/08 04:41:56;;;;;;;62.00;13.35;;;;;;;19.78;50.10;93483.41;5011411;28;20049;-90
2023/08/08 04:44:22;;;;;;;52.63;10.43;;;;;;;19.70;49.06;93474.28;4994501;28;20053;-90
2023/08/08 04:46:47;;;;;;;38.30;8.23;;;;;;;19.72;48.78;93491.69;5016115;28;20411;-91
2023/08/08 04:49:12;;;;;;;32.13;7.13;;;;;;;19.60;48.45;93478.66;5020011;28;20282;-89
2023/08/08 04:51:39;;;;;;;29.20;6.53;;;;;;;19.54;48.50;93494.41;5033340;28;20048;-91
2023/08/08 04:54:04;;;;;;;61.85;9.43;;;;;;;19.51;48.39;93485.22;5026998;28;20051;-92
2023/08/08 04:56:30;;;;;;;37.70;7.40;;;;;;;19.42;48.50;93486.31;5065470;28;20490;-90
2023/08/08 04:58:56;;;;;;;37.72;8.27;;;;;;;19.43;48.33;93493.28;5058962;28;20047;-90
2023/08/08 05:01:22;;;;;;;35.83;10.20;;;;;;;19.49;48.32;93490.44;5091082;27;20035;-90
2023/08/08 05:03:48;;;;;;;41.78;10.98;;;;;;;19.38;48.44;93494.06;5081899;28;20033;-92
2023/08/08 05:06:13;;;;;;;62.00;13.48;;;;;;;19.37;48.13;93489.09;5068640;28;20122;-91
2023/08/08 05:08:39;;;;;;;50.45;13.40;;;;;;;19.30;48.52;93500.63;5077534;28;20051;-92
2023/08/08 05:11:04;;;;;;;42.80;10.27;;;;;;;19.26;48.48;93497.44;5059215;28;20040;-91
2023/08/08 05:13:29;;;;;;;32.83;8.95;;;;;;;19.29;48.67;93499.88;5065342;28;20044;-91
2023/08/08 05:15:55;;;;;;;37.45;9.35;;;;;;;19.33;48.62;93494.13;5070449;28;20050;-93
2023/08/08 05:18:20;;;;;;;38.13;10.85;;;;;;;19.38;48.44;93502.28;5075266;27;20035;-90
2023/08/08 05:20:46;;;;;;;35.58;10.35;;;;;;;19.44;48.61;93492.00;5082121;27;20477;-90
2023/08/08 05:23:11;;;;;;;47.88;13.15;;;;;;;19.44;48.88;93494.75;5073144;27;20040;-89
2023/08/08 05:25:37;;;;;;;46.05;12.68;;;;;;;19.50;48.72;93511.16;5091984;27;20401;-91
2023/08/08 05:28:03;;;;;;;39.72;15.10;;;;;;;19.52;48.78;93520.34;5058071;28;20032;-90
2023/08/08 05:30:29;;;;;;;58.50;16.08;;;;;;;19.56;48.64;93522.06;5060285;28;20035;-90
2023/08/08 05:32:54;;;;;;;57.80;18.75;;;;;;;19.61;48.68;93526.75;5080699;28;20481;-88
2023/08/08 05:35:20;;;;;;;59.17;20.08;;;;;;;19.63;49.02;93527.72;5076905;28;20514;-90
2023/08/08 05:37:46;;;;;;;47.88;19.55;;;;;;;19.64;49.52;93534.69;5071563;28;20101;-90
2023/08/08 05:40:11;;;;;;;26.40;13.43;;;;;;;19.56;49.13;93524.81;5062480;28;20040;-89
2023/08/08 05:42:38;;;;;;;38.83;12.60;;;;;;;19.46;48.79;93525.16;5073127;28;20071;-93
2023/08/08 05:45:03;;;;;;;34.13;12.55;;;;;;;19.42;49.11;93496.53;5066683;28;20123;-91
2023/08/08 05:47:31;;;;;;;36.97;11.27;;;;;;;19.45;49.45;93498.25;5061229;28;20043;-91
2023/08/08 05:49:57;;;;;;;43.40;13.98;;;;;;;19.47;49.37;93501.94;5071276;28;20400;-92
2023/08/08 05:52:22;;;;;;;35.95;15.38;;;;;;;19.57;49.18;93505.09;5057724;28;20052;-91
2023/08/08 05:54:48;;;;;;;88.78;38.42;;;;;;;19.57;49.26;93504.34;5058834;28;20043;-92
2023/08/08 05:57:13;;;;;;;76.00;23.67;;;;;;;19.58;49.21;93512.06;5078084;27;20050;-91
2023/08/08 05:59:38;;;;;;;82.65;29.05;;;;;;;19.62;49.51;93517.25;5080630;27;20050;-90
2023/08/08 06:02:04;;;;;;;85.45;32.45;;;;;;;19.64;49.26;93512.75;5085515;27;20047;-91
2023/08/08 06:04:29;;;;;;;88.35;38.47;;;;;;;19.63;49.22;93508.53;5084199;28;20040;-92
2023/08/08 06:06:57;;;;;;;102.05;45.47;;;;;;;19.69;49.89;93492.00;5056524;28;20081;-91
2023/08/08 06:09:23;;;;;;;149.88;71.60;;;;;;;19.79;50.08;93504.84;5054005;28;20101;-87
2023/08/08 06:11:48;;;;;;;146.50;64.40;;;;;;;19.81;50.33;93515.28;5070619;28;20044;-91
2023/08/08 06:14:14;;;;;;;142.80;64.40;;;;;;;19.92;50.20;93511.69;5069220;28;20038;-88
2023/08/08 06:16:41;;;;;;;135.70;67.90;;;;;;;19.90;50.13;93514.19;5076637;28;20040;-89
2023/08/08 06:19:07;;;;;;;122.78;55.58;;;;;;;19.92;50.26;93508.94;5078714;28;20032;-91
2023/08/08 06:21:32;;;;;;;122.20;63.72;;;;;;;19.91;49.95;93510.94;5063726;28;20085;-91
2023/08/08 06:23:57;;;;;;;118.15;58.20;;;;;;;19.94;50.17;93509.88;5069535;28;20050;-88
2023/08/08 06:26:23;;;;;;;148.25;91.82;;;;;;;19.96;50.19;93507.34;5059568;28;20393;-89
2023/08/08 06:28:48;;;;;;;128.48;65.20;;;;;;;20.02;49.96;93510.03;5076140;28;20047;-90
2023/08/08 06:31:14;;;;;;;103.47;55.38;;;;;;;20.01;50.22;93508.56;5055139;28;20036;-92
2023/08/08 06:33:40;;;;;;;114.00;58.28;;;;;;;19.94;49.98;93512.63;5057362;28;20046;-91
2023/08/08 06:36:05;;;;;;;120.90;59.65;;;;;;;19.95;50.16;93505.88;5079692;28;20040;-91
2023/08/08 06:38:33;;;;;;;124.18;61.17;;;;;;;19.98;50.16;93510.34;5079491;28;20035;-90
2023/08/08 06:41:00;;;;;;;107.70;55.92;;;;;;;19.97;49.97;93503.34;5088474;28;20046;-90
2023/08/08 06:43:26;;;;;;;109.18;56.10;;;;;;;19.97;50.11;93511.59;5059572;28;20047;-92
2023/08/08 06:45:51;;;;;;;107.00;54.83;;;;;;;19.97;49.92;93506.09;5077046;28;20087;-92
2023/08/08 06:48:18;;;;;;;106.82;54.97;;;;;;;19.99;49.97;93511.81;5066084;28;20510;-92
2023/08/08 06:50:43;;;;;;;107.43;53.42;;;;;;;20.00;50.18;93507.81;5083607;28;20047;-91
2023/08/08 06:53:10;;;;;;;108.55;48.65;;;;;;;20.01;50.03;93506.56;5065899;28;20638;-91
2023/08/08 06:55:36;;;;;;;110.88;50.13;;;;;;;20.10;49.88;93505.44;5084323;28;20039;-91
2023/08/08 06:58:01;;;;;;;114.95;48.13;;;;;;;20.01;50.02;93508.56;5067523;28;20069;-90
2023/08/08 07:00:27;;;;;;;100.15;46.05;;;;;;;20.02;50.15;93515.53;5076765;28;20044;-91
2023/08/08 07:02:53;;;;;;;101.00;45.85;;;;;;;20.02;50.25;93519.00;5060553;28;20529;-92
2023/08/08 07:05:19;;;;;;;105.07;46.35;;;;;;;20.04;50.07;93513.75;5056965;28;20040;-91
2023/08/08 07:07:44;;;;;;;101.80;45.65;;;;;;;20.03;50.28;93511.53;5055479;28;20389;-90
2023/08/08 07:10:11;;;;;;;95.43;43.15;;;;;;;20.07;50.27;93504.47;5062031;28;20070;-92
2023/08/08 07:12:37;;;;;;;102.47;44.53;;;;;;;20.04;50.28;93505.50;5086928;28;20044;-92
2023/08/08 07:15:02;;;;;;;90.97;45.15;;;;;;;20.05;50.34;93504.25;5060012;28;20036;-92
2023/08/08 07:17:29;;;;;;;90.57;45.90;;;;;;;20.08;50.32;93505.97;5078077;28;20085;-91
2023/08/08 07:19:54;;;;;;;109.65;51.45;;;;;;;20.09;50.41;93507.44;5074671;27;20039;-91
2023/08/08 07:22:20;;;;;;;109.22;49.40;;;;;;;20.13;50.22;93510.66;5079021;28;20040;-91
2023/08/08 07:24:46;;;;;;;103.93;48.55;;;;;;;20.10;50.30;93511.69;5086106;27;20047;-90
2023/08/08 07:27:11;;;;;;;109.00;47.63;;;;;;;20.15;50.17;93502.59;5100170;27;20488;-90
2023/08/08 07:29:36;;;;;;;104.88;41.65;;;;;;;20.14;50.52;93511.38;5094598;27;20047;-91
2023/08/08 07:32:03;;;;;;;91.80;41.90;;;;;;;20.17;50.26;93502.09;5099854;27;20038;-90
2023/08/08 07:34:29;;;;;;;94.03;44.63;;;;;;;20.16;50.31;93511.59;5082794;27;20106;-92
2023/08/08 07:36:56;;;;;;;158.27;50.83;;;;;;;20.16;50.52;93508.84;5082692;28;20406;-90
2023/08/08 07:39:21;;;;;;;129.43;45.30;;;;;;;20.21;50.25;93505.28;5052209;27;20035;-91
2023/08/08 07:41:47;;;;;;;140.38;48.03;;;;;;;20.20;50.38;93503.81;5079491;28;20501;-90
2023/08/08 07:44:12;;;;;;;132.27;45.83;;;;;;;20.20;50.49;93504.53;5079807;28;20322;-91
2023/08/08 07:46:37;;;;;;;107.18;41.83;;;;;;;20.23;50.49;93499.28;5117397;27;20039;-90
2023/08/08 07:49:04;;;;;;;103.80;39.55;;;;;;;20.23;50.29;93497.28;5086633;27;20079;-90
2023/08/08 07:51:30;;;;;;;96.45;37.10;;;;;;;20.21;50.41;93497.06;5082689;28;20040;-90
2023/08/08 07:53:55;;;;;;;89.50;38.28;;;;;;;20.23;50.23;93494.53;5067123;28;20044;-92
2023/08/08 07:56:20;;;;;;;90.50;36.33;;;;;;;20.26;50.19;93498.25;5095824;27;20045;-91
2023/08/08 07:58:48;;;;;;;80.90;36.58;;;;;;;20.24;50.34;93503.50;5101377;27;20039;-92
2023/08/08 08:01:15;;;;;;;75.47;35.45;;;;;;;20.24;50.38;93498.75;5084409;28;20040;-92
2023/08/08 08:03:41;;;;;;;102.55;44.67;;;;;;;20.26;50.49;93504.47;5095558;27;20035;-91
2023/08/08 08:06:08;;;;;;;75.93;36.00;;;;;;;20.26;50.49;93487.25;5086380;28;20565;-90
2023/08/08 08:08:33;;;;;;;81.78;38.50;;;;;;;20.29;50.35;93489.72;5078481;28;20044;-90
2023/08/08 08:10:59;;;;;;;70.70;37.13;;;;;;;20.31;50.41;93489.94;5076822;28;20032;-92
2023/08/08 08:13:24;;;;;;;84.00;41.42;;;;;;;20.31;50.47;93489.94;5073798;28;20047;-92
2023/08/08 08:15:50;;;;;;;109.60;41.38;;;;;;;20.31;50.49;93478.22;5061340;28;20042;-90
2023/08/08 08:18:16;;;;;;;92.03;44.72;;;;;;;20.30;50.58;93490.44;5056335;28;20417;-91
2023/08/08 08:20:49;;;;;;;79.90;38.38;;;;;;;20.31;50.38;93484.44;5067364;28;20059;-89
2023/08/08 08:23:15;;;;;;;93.43;49.45;;;;;;;20.32;50.34;93482.44;5090910;27;20101;-92
2023/08/08 08:25:40;;;;;;;90.57;43.90;;;;;;;20.34;50.54;93474.41;5077182;27;20412;-91
2023/08/08 08:28:06;;;;;;;106.90;61.22;;;;;;;20.35;50.42;93456.69;5078912;27;20058;-92
2023/08/08 08:30:31;;;;;;;134.05;74.35;;;;;;;20.35;50.63;93467.66;5085115;28;20047;-92
2023/08/08 08:33:00;;;;;;;138.38;73.35;;;;;;;20.36;50.76;93464.38;5049575;28;20051;-90
2023/08/08 08:35:26;;;;;;;143.13;78.90;;;;;;;20.38;50.62;93466.63;5084674;27;20068;-91
2023/08/08 08:37:51;;;;;;;137.13;78.88;;;;;;;20.38;50.55;93467.38;5077236;28;20682;-90
2023/08/08 08:40:18;;;;;;;146.52;80.72;;;;;;;20.37;50.60;93462.41;5052383;27;20024;-92
2023/08/08 08:42:43;;;;;;;123.45;69.47;;;;;;;20.39;50.55;93463.38;5092442;27;20549;-91
2023/08/08 08:45:12;;;;;;;123.28;66.65;;;;;;;20.34;50.34;93464.19;5095602;27;20031;-91
2023/08/08 08:47:37;;;;;;;86.53;47.17;;;;;;;20.36;50.01;93458.16;5096636;27;20520;-92
2023/08/08 08:50:03;;;;;;;75.63;37.63;;;;;;;20.34;49.90;93468.94;5080210;27;20062;-91
2023/08/08 08:52:29;;;;;;;66.10;35.15;;;;;;;20.27;49.94;93469.53;5065621;27;20043;-90
2023/08/08 08:54:55;;;;;;;62.88;32.08;;;;;;;20.25;50.12;93459.06;5089019;28;20147;-91
2023/08/08 08:57:23;;;;;;;65.15;29.83;;;;;;;20.22;49.97;93456.63;5039391;28;20410;-91
2023/08/08 08:59:49;;;;;;;47.35;23.85;;;;;;;20.23;49.69;93460.84;5056208;28;20047;-91
2023/08/08 09:02:15;;;;;;;54.88;22.85;;;;;;;20.16;50.20;93467.66;5036876;28;20037;-91
2023/08/08 09:04:41;;;;;;;48.42;21.33;;;;;;;20.16;49.75;93471.16;5075605;28;20066;-92
2023/08/08 09:07:07;;;;;;;44.40;18.50;;;;;;;20.17;49.84;93456.16;5040783;28;20036;-91
2023/08/08 09:09:32;;;;;;;65.90;19.20;;;;;;;20.14;50.06;93459.97;5036614;28;20044;-92
2023/08/08 09:11:58;;;;;;;127.90;34.47;;;;;;;20.20;50.19;93454.41;5055383;28;20040;-91
2023/08/08 09:14:24;;;;;;;101.30;49.97;;;;;;;20.11;50.25;93469.25;5054730;28;20044;-89
2023/08/08 09:16:52;;;;;;;99.93;49.97;;;;;;;20.11;50.17;93455.53;5034039;28;20041;-90
2023/08/08 09:19:18;;;;;;;147.52;47.20;;;;;;;20.18;50.49;93454.16;5053207;28;20048;-90
2023/08/08 09:21:43;;;;;;;137.95;47.67;;;;;;;20.14;50.21;93459.22;5045740;28;20086;-90
2023/08/08 09:24:09;;;;;;;120.50;43.20;;;;;;;20.20;50.34;93444.16;5042402;28;20082;-91
2023/08/08 09:26:34;;;;;;;129.45;50.05;;;;;;;20.16;50.52;93456.69;5031903;28;20033;-88
2023/08/08 09:29:01;;;;;;;101.85;47.70;;;;;;;20.16;50.27;93460.19;5051672;28;20044;-89
2023/08/08 09:31:26;;;;;;;113.78;49.17;;;;;;;20.14;50.21;93454.47;5031193;28;20041;-89
2023/08/08 09:33:54;;;;;;;103.60;46.80;;;;;;;20.14;50.29;93461.97;5049530;28;20569;-88
2023/08/08 09:36:19;;;;;;;123.13;50.70;;;;;;;20.17;50.21;93463.66;5030743;28;20040;-92
2023/08/08 09:38:45;;;;;;;123.55;51.20;;;;;;;20.10;50.23;93445.81;5040053;28;20478;-90
2023/08/08 09:41:11;;;;;;;143.02;51.88;;;;;;;20.17;50.33;93450.69;5052640;28;20044;-91
2023/08/08 09:43:36;;;;;;;136.68;59.55;;;;;;;20.11;50.34;93461.03;5038347;28;20060;-89
2023/08/08 09:46:03;;;;;;;121.35;49.97;;;;;;;20.09;50.47;93460.81;5064871;28;20044;-92
2023/08/08 09:48:31;;;;;;;116.00;47.30;;;;;;;20.11;50.47;93463.03;5037910;28;20048;-90
2023/08/08 09:50:59;;;;;;;113.40;43.13;;;;;;;20.16;50.58;93459.44;5051124;28;20043;-89
2023/08/08 09:53:25;;;;;;;108.45;43.60;;;;;;;20.15;50.46;93442.22;5052527;28;20039;-89
2023/08/08 09:55:50;;;;;;;114.53;42.95;;;;;;;20.13;50.31;93453.00;5072638;28;20045;-93
2023/08/08 09:58:17;;;;;;;114.00;45.20;;;;;;;20.17;50.36;93441.72;5044811;28;20173;-90
2023/08/08 10:00:43;;;;;;;122.65;61.50;;;;;;;20.12;50.23;93461.75;5042867;28;20052;-89
2023/08/08 10:03:08;;;;;;;116.38;61.95;;;;;;;20.11;49.90;93455.53;5079086;28;20606;-91
2023/08/08 10:05:33;;;;;;;90.60;41.50;;;;;;;20.12;50.17;93456.28;5050971;28;20032;-92
2023/08/08 10:07:59;;;;;;;81.78;39.03;;;;;;;20.10;50.02;93459.53;5049737;28;20490;-90
2023/08/08 10:10:24;;;;;;;75.60;35.33;;;;;;;20.10;50.11;93451.31;5045210;28;20547;-89
2023/08/08 10:12:50;;;;;;;70.57;33.65;;;;;;;20.11;49.71;93466.50;5058166;28;20123;-91
2023/08/08 10:15:15;;;;;;;60.33;31.20;;;;;;;20.13;49.61;93455.00;5066720;28;20040;-90
2023/08/08 10:17:41;;;;;;;52.90;24.48;;;;;;;20.14;49.86;93442.75;5053557;28;20332;-90
2023/08/08 10:20:11;;;;;;;48.35;21.75;;;;;;;20.11;49.49;93450.03;5050967;28;20050;-90
2023/08/08 10:22:38;;;;;;;37.58;18.98;;;;;;;20.16;49.71;93449.19;5072373;28;20049;-91
2023/08/08 10:25:05;;;;;;;30.67;17.48;;;;;;;20.16;49.10;93442.97;5045145;28;21201;-91
2023/08/08 10:27:35;;;;;;;31.25;15.88;;;;;;;20.14;49.21;93442.75;5055187;28;20067;-92
2023/08/08 10:30:03;;;;;;;31.27;15.32;;;;;;;20.16;49.03;93442.97;5050816;28;20502;-91
2023/08/08 10:32:28;;;;;;;30.33;15.00;;;;;;;20.15;48.99;93436.00;5052745;28;20390;-90
2023/08/08 10:34:55;;;;;;;25.40;13.63;;;;;;;20.18;49.15;93435.69;5067604;28;20057;-92
2023/08/08 10:37:23;;;;;;;20.45;10.20;;;;;;;20.15;49.18;93422.28;5051000;28;20120;-89
2023/08/08 10:39:57;;;;;;;17.90;10.10;;;;;;;20.14;48.73;93435.25;5060592;28;20748;-90
2023/08/08 10:42:24;;;;;;;19.50;10.02;;;;;;;20.13;48.38;93431.06;5050913;28;20044;-91
2023/08/08 10:44:57;;;;;;;15.45;9.02;;;;;;;20.14;48.59;93434.50;5061112;28;20044;-89
2023/08/08 10:47:27;;;;;;;22.70;10.63;;;;;;;20.14;48.41;93435.25;5067130;28;20052;-89
2023/08/08 10:50:09;;;;;;;16.23;7.88;;;;;;;20.13;48.21;93439.28;5070253;28;20059;-91
2023/08/08 10:52:53;;;;;;;11.85;7.95;;;;;;;20.13;48.47;93409.09;5073478;28;20064;-89
2023/08/08 10:55:20;;;;;;;18.50;10.43;;;;;;;20.15;48.44;93427.75;5084357;28;20048;-92
2023/08/08 10:58:05;;;;;;;20.95;11.43;;;;;;;20.15;48.50;93420.28;5054158;28;20473;-89
2023/08/08 11:00:31;;;;;;;15.15;9.95;;;;;;;20.15;48.46;93425.03;5088339;28;20502;-91
2023/08/08 11:02:58;;;;;;;25.20;13.35;;;;;;;20.16;48.46;93421.00;5056638;28;20096;-88
2023/08/08 11:05:24;;;;;;;20.90;12.52;;;;;;;20.21;48.48;93428.44;5038186;28;20356;-87
2023/08/08 11:07:50;;;;;;;31.77;16.02;;;;;;;20.23;48.46;93419.66;5056270;28;20063;-89
2023/08/08 11:10:16;;;;;;;41.55;20.50;;;;;;;20.22;48.87;93416.19;5051140;28;20041;-88
2023/08/08 11:12:42;;;;;;;43.22;20.67;;;;;;;20.25;48.71;93419.91;5057678;28;20030;-90
2023/08/08 11:15:08;;;;;;;48.13;20.83;;;;;;;20.23;48.96;93409.44;5055990;28;20101;-90